createdAt,value
2019-05-05T00:01:25.098Z,68.90
2019-05-05T00:04:09.488Z,69.30
2019-05-05T00:06:40.352Z,68.90
2019-05-05T00:09:10.929Z,69.80
2019-05-05T00:11:45.676Z,69.80
2019-05-05T00:14:29.564Z,69.70
2019-05-05T00:17:05.339Z,69.50
2019-05-05T00:19:36.009Z,69.40
2019-05-05T00:22:06.508Z,69.80
2019-05-05T00:24:36.939Z,69.70
2019-05-05T00:27:07.528Z,69.80
2019-05-05T00:29:37.936Z,70.00
2019-05-05T00:32:08.385Z,70.00
2019-05-05T00:34:38.800Z,70.20
2019-05-05T00:37:09.194Z,70.50
2019-05-05T00:39:39.611Z,70.70
2019-05-05T00:42:10.000Z,70.90
2019-05-05T00:44:40.969Z,71.00
2019-05-05T00:47:25.153Z,71.00
2019-05-05T00:49:56.409Z,70.90
2019-05-05T00:52:27.043Z,70.90
2019-05-05T00:54:57.490Z,71.00
2019-05-05T00:57:27.905Z,71.20
2019-05-05T00:59:58.292Z,71.40
2019-05-05T01:02:39.035Z,71.30
2019-05-05T01:05:11.108Z,71.30
2019-05-05T01:07:44.287Z,70.80
2019-05-05T01:10:15.885Z,70.80
2019-05-05T01:12:47.771Z,70.80
2019-05-05T01:15:18.415Z,70.90
2019-05-05T01:17:48.826Z,70.50
2019-05-05T01:20:19.230Z,70.60
2019-05-05T01:22:49.638Z,70.70
2019-05-05T01:25:20.139Z,71.00
2019-05-05T01:27:50.579Z,70.70
2019-05-05T01:30:24.446Z,70.40
2019-05-05T01:33:05.534Z,70.40
2019-05-05T01:35:37.090Z,70.60
2019-05-05T01:38:09.076Z,70.50
2019-05-05T01:40:44.662Z,70.50
2019-05-05T01:43:16.872Z,70.50
2019-05-05T01:45:47.359Z,70.60
2019-05-05T01:48:18.621Z,70.40
2019-05-05T01:50:49.081Z,70.60
2019-05-05T01:53:19.484Z,70.60
2019-05-05T01:55:50.155Z,70.60
2019-05-05T01:58:24.459Z,70.90
2019-05-05T02:00:55.135Z,70.70
2019-05-05T02:03:25.956Z,70.70
2019-05-05T02:05:56.363Z,70.80
2019-05-05T02:08:26.775Z,71.10
2019-05-05T02:10:57.169Z,71.00
2019-05-05T02:13:27.569Z,71.00
2019-05-05T02:15:57.993Z,70.80
2019-05-05T02:18:28.355Z,70.10
2019-05-05T02:21:07.202Z,70.60
2019-05-05T02:23:39.148Z,70.80
2019-05-05T02:26:09.566Z,70.70
2019-05-05T02:28:41.677Z,71.10
2019-05-05T02:31:25.795Z,71.20
2019-05-05T02:33:57.653Z,71.00
2019-05-05T02:36:28.139Z,71.20
2019-05-05T02:38:58.501Z,71.30
2019-05-05T02:41:31.280Z,71.30
2019-05-05T02:44:04.888Z,71.50
2019-05-05T02:46:50.877Z,71.40
2019-05-05T02:49:21.439Z,71.40
2019-05-05T02:51:55.211Z,71.80
2019-05-05T02:54:26.354Z,72.30
2019-05-05T02:56:56.871Z,72.60
2019-05-05T02:59:31.077Z,72.90
2019-05-05T03:02:14.351Z,73.40
2019-05-05T03:04:44.995Z,73.20
2019-05-05T03:07:17.520Z,73.70
2019-05-05T03:09:49.453Z,73.90
2019-05-05T03:12:20.871Z,73.90
2019-05-05T03:14:54.336Z,73.70
2019-05-05T03:17:24.868Z,73.20
2019-05-05T03:19:56.130Z,72.00
2019-05-05T03:22:26.727Z,71.60
2019-05-05T03:24:57.211Z,71.40
2019-05-05T03:27:27.697Z,72.30
2019-05-05T03:29:59.060Z,73.00
2019-05-05T03:32:29.474Z,72.40
2019-05-05T03:34:59.906Z,72.80
2019-05-05T03:37:30.314Z,72.10
2019-05-05T03:40:04.265Z,72.20
2019-05-05T03:42:55.173Z,72.20
2019-05-05T03:45:27.519Z,72.90
2019-05-05T03:47:58.520Z,71.90
2019-05-05T03:50:29.358Z,72.30
2019-05-05T03:53:01.221Z,72.80
2019-05-05T03:55:31.790Z,71.60
2019-05-05T03:58:04.046Z,72.60
2019-05-05T04:00:50.718Z,72.50
2019-05-05T04:03:21.124Z,73.00
2019-05-05T04:05:56.271Z,72.30
2019-05-05T04:08:26.674Z,71.80
2019-05-05T04:10:57.034Z,72.50
2019-05-05T04:13:28.673Z,73.20
2019-05-05T04:16:06.550Z,73.60
2019-05-05T04:18:44.383Z,72.50
2019-05-05T04:21:14.954Z,73.00
2019-05-05T04:23:45.554Z,72.30
2019-05-05T04:26:15.923Z,72.90
2019-05-05T04:28:46.332Z,72.90
2019-05-05T04:31:16.722Z,72.00
2019-05-05T04:33:50.196Z,72.00
2019-05-05T04:36:20.702Z,71.90
2019-05-05T04:38:54.499Z,71.10
2019-05-05T04:41:24.683Z,71.90
2019-05-05T04:43:55.164Z,72.30
2019-05-05T04:46:25.622Z,72.90
2019-05-05T04:48:59.019Z,72.70
2019-05-05T04:51:43.994Z,72.20
2019-05-05T04:54:07.777Z,72.50
2019-05-05T04:56:39.797Z,71.60
2019-05-05T04:59:10.155Z,71.60
2019-05-05T05:01:40.766Z,71.00
2019-05-05T05:04:21.841Z,70.60
2019-05-05T05:06:56.546Z,70.40
2019-05-05T05:09:27.021Z,70.00
2019-05-05T05:11:57.506Z,70.40
2019-05-05T05:14:27.864Z,69.70
2019-05-05T05:17:03.486Z,69.80
2019-05-05T05:19:34.203Z,68.60
2019-05-05T05:22:05.068Z,69.30
2019-05-05T05:24:35.592Z,69.20
2019-05-05T05:27:06.009Z,68.90
2019-05-05T05:29:36.459Z,68.70
2019-05-05T05:32:06.861Z,69.10
2019-05-05T05:34:37.374Z,67.40
2019-05-05T05:37:07.742Z,68.10
2019-05-05T05:39:44.058Z,67.10
2019-05-05T05:42:14.583Z,66.20
2019-05-05T05:44:55.617Z,67.20
2019-05-05T05:47:30.736Z,67.60
2019-05-05T05:50:04.019Z,68.10
2019-05-05T05:52:34.582Z,67.80
2019-05-05T05:55:07.094Z,67.70
2019-05-05T05:57:37.457Z,67.70
2019-05-05T06:00:07.819Z,67.30
2019-05-05T06:02:38.185Z,68.10
2019-05-05T06:05:08.814Z,67.10
2019-05-05T06:07:40.033Z,67.40
2019-05-05T06:10:21.445Z,68.10
2019-05-05T06:12:45.009Z,67.40
2019-05-05T06:15:16.045Z,68.00
2019-05-05T06:17:46.605Z,67.50
2019-05-05T06:20:17.059Z,67.80
2019-05-05T06:22:47.636Z,67.90
2019-05-05T06:25:18.054Z,68.00
2019-05-05T06:27:48.482Z,67.50
2019-05-05T06:30:19.034Z,67.50
2019-05-05T06:32:49.407Z,67.10
2019-05-05T06:35:20.967Z,67.20
2019-05-05T06:37:54.723Z,66.70
2019-05-05T06:40:27.164Z,66.40
2019-05-05T06:42:59.268Z,66.60
2019-05-05T06:45:34.363Z,66.50
2019-05-05T06:48:04.841Z,66.90
2019-05-05T06:50:35.323Z,65.90
2019-05-05T06:53:05.775Z,65.80
2019-05-05T06:55:36.173Z,65.90
2019-05-05T06:58:06.551Z,65.70
2019-05-05T07:00:36.995Z,65.80
2019-05-05T07:03:07.930Z,65.90
2019-05-05T07:05:40.784Z,65.70
2019-05-05T07:08:13.833Z,65.40
2019-05-05T07:10:44.603Z,65.70
2019-05-05T07:13:15.173Z,65.20
2019-05-05T07:15:46.573Z,65.00
2019-05-05T07:18:16.949Z,65.20
2019-05-05T07:20:47.464Z,65.30
2019-05-05T07:23:18.032Z,66.10
2019-05-05T07:25:48.446Z,65.90
2019-05-05T07:28:18.873Z,66.10
2019-05-05T07:30:49.318Z,66.60
2019-05-05T07:33:19.995Z,66.20
2019-05-05T07:35:56.669Z,67.00
2019-05-05T07:38:24.467Z,68.00
2019-05-05T07:40:54.961Z,68.30
2019-05-05T07:43:25.333Z,68.20
2019-05-05T07:45:55.722Z,67.80
2019-05-05T07:48:27.597Z,68.00
2019-05-05T07:51:01.856Z,67.60
2019-05-05T07:53:30.166Z,68.00
2019-05-05T07:56:00.652Z,67.80
2019-05-05T07:58:31.142Z,68.50
2019-05-05T08:01:04.772Z,68.10
2019-05-05T08:03:35.308Z,68.90
2019-05-05T08:06:05.682Z,68.10
2019-05-05T08:08:36.094Z,68.50
2019-05-05T08:11:06.539Z,68.60
2019-05-05T08:13:37.107Z,69.20
2019-05-05T08:16:14.000Z,69.10
2019-05-05T08:18:51.472Z,68.90
2019-05-05T08:21:23.964Z,68.90
2019-05-05T08:23:55.691Z,68.00
2019-05-05T08:26:45.630Z,67.90
2019-05-05T08:29:30.915Z,67.70
2019-05-05T08:32:13.567Z,67.80
2019-05-05T08:34:57.482Z,67.70
2019-05-05T08:37:16.466Z,67.90
2019-05-05T08:39:48.362Z,67.50
2019-05-05T08:42:18.921Z,66.40
2019-05-05T08:44:49.283Z,66.20
2019-05-05T08:47:19.678Z,66.80
2019-05-05T08:49:50.150Z,65.60
2019-05-05T08:52:20.611Z,66.00
2019-05-05T08:54:54.107Z,65.10
2019-05-05T08:57:24.763Z,65.10
2019-05-05T08:59:55.162Z,65.30
2019-05-05T09:02:25.713Z,64.90
2019-05-05T09:04:56.200Z,64.60
2019-05-05T09:07:26.735Z,63.80
2019-05-05T09:09:57.137Z,64.10
2019-05-05T09:12:27.520Z,63.50
2019-05-05T09:14:58.037Z,63.60
2019-05-05T09:17:28.952Z,62.30
2019-05-05T09:19:59.403Z,62.60
2019-05-05T09:22:29.860Z,63.10
2019-05-05T09:25:20.132Z,61.90
2019-05-05T09:27:58.137Z,60.60
2019-05-05T09:30:38.459Z,60.70
2019-05-05T09:33:10.606Z,60.00
2019-05-05T09:35:43.669Z,60.00
2019-05-05T09:38:14.667Z,60.80
2019-05-05T09:40:45.617Z,60.50
2019-05-05T09:43:17.433Z,61.00
2019-05-05T09:45:47.850Z,61.00
2019-05-05T09:48:18.332Z,61.80
2019-05-05T09:50:48.773Z,61.10
2019-05-05T09:53:19.223Z,61.20
2019-05-05T09:55:49.640Z,61.20
2019-05-05T09:58:20.054Z,60.30
2019-05-05T10:00:50.423Z,60.60
2019-05-05T10:03:20.833Z,61.10
2019-05-05T10:05:51.402Z,61.60
2019-05-05T10:08:23.678Z,61.60
2019-05-05T10:10:54.817Z,61.20
2019-05-05T10:13:25.337Z,61.80
2019-05-05T10:15:55.737Z,61.80
2019-05-05T10:18:26.098Z,61.20
2019-05-05T10:20:56.632Z,61.60
2019-05-05T10:23:28.614Z,61.80
2019-05-05T10:26:04.355Z,61.00
2019-05-05T10:28:35.740Z,61.20
2019-05-05T10:31:06.947Z,61.30
2019-05-05T10:33:38.934Z,61.00
2019-05-05T10:36:09.323Z,60.70
2019-05-05T10:38:41.446Z,60.70
2019-05-05T10:41:13.554Z,61.50
2019-05-05T10:43:44.431Z,60.40
2019-05-05T10:46:16.393Z,60.60
2019-05-05T10:48:48.252Z,60.80
2019-05-05T10:51:19.496Z,60.60
2019-05-05T10:53:49.919Z,60.90
2019-05-05T10:56:20.308Z,59.90
2019-05-05T10:58:50.787Z,59.60
2019-05-05T11:01:21.148Z,59.90
2019-05-05T11:03:51.621Z,59.80
2019-05-05T11:06:22.412Z,60.00
2019-05-05T11:08:54.055Z,61.30
2019-05-05T11:11:24.726Z,61.50
2019-05-05T11:13:55.353Z,61.40
2019-05-05T11:16:25.813Z,61.90
2019-05-05T11:18:56.282Z,61.60
2019-05-05T11:21:26.931Z,62.40
2019-05-05T11:23:58.807Z,62.50
2019-05-05T11:26:29.321Z,62.90
2019-05-05T11:28:59.688Z,63.00
2019-05-05T11:31:31.546Z,63.10
2019-05-05T11:34:03.498Z,62.70
2019-05-05T11:36:47.681Z,62.90
2019-05-05T11:39:18.057Z,62.90
2019-05-05T11:41:49.930Z,63.90
2019-05-05T11:44:21.766Z,63.20
2019-05-05T11:46:54.502Z,63.20
2019-05-05T11:49:24.601Z,62.60
2019-05-05T11:51:55.210Z,63.00
2019-05-05T11:54:25.631Z,62.60
2019-05-05T11:56:56.045Z,62.70
2019-05-05T11:59:26.424Z,63.20
2019-05-05T12:01:56.834Z,62.80
2019-05-05T12:04:27.196Z,62.80
2019-05-05T12:06:57.607Z,63.00
2019-05-05T12:09:29.680Z,63.20
2019-05-05T12:12:00.062Z,63.60
2019-05-05T12:14:31.892Z,64.80
2019-05-05T12:17:05.311Z,63.90
2019-05-05T12:19:35.770Z,64.40
2019-05-05T12:22:06.341Z,64.80
2019-05-05T12:24:38.288Z,64.90
2019-05-05T12:27:16.388Z,65.00
2019-05-05T12:29:47.786Z,65.30
2019-05-05T12:32:18.243Z,65.90
2019-05-05T12:34:50.073Z,65.50
2019-05-05T12:37:20.701Z,65.30
2019-05-05T12:39:51.079Z,65.40
2019-05-05T12:42:24.203Z,64.50
2019-05-05T12:44:56.381Z,64.50
2019-05-05T12:47:28.349Z,64.80
2019-05-05T12:49:58.865Z,65.10
2019-05-05T12:52:29.340Z,64.50
2019-05-05T12:55:02.094Z,64.50
2019-05-05T12:57:31.799Z,64.70
2019-05-05T13:00:04.216Z,63.80
2019-05-05T13:02:34.792Z,64.00
2019-05-05T13:05:07.072Z,64.50
2019-05-05T13:07:37.460Z,63.60
2019-05-05T13:10:08.314Z,63.90
2019-05-05T13:12:38.716Z,63.50
2019-05-05T13:15:09.188Z,64.10
2019-05-05T13:17:41.370Z,64.40
2019-05-05T13:20:24.626Z,65.10
2019-05-05T13:23:04.147Z,65.30
2019-05-05T13:25:56.704Z,66.30
2019-05-05T13:28:26.640Z,66.30
2019-05-05T13:30:57.039Z,66.20
2019-05-05T13:33:27.473Z,66.60
2019-05-05T13:35:57.901Z,66.10
2019-05-05T13:38:28.436Z,66.00
2019-05-05T13:40:58.880Z,66.00
2019-05-05T13:43:30.775Z,65.60
2019-05-05T13:46:02.718Z,65.60
2019-05-05T13:48:33.814Z,65.20
2019-05-05T13:51:05.960Z,65.30
2019-05-05T13:53:36.844Z,65.60
2019-05-05T13:56:11.961Z,65.60
2019-05-05T13:58:41.029Z,66.20
2019-05-05T14:01:11.413Z,65.80
2019-05-05T14:03:41.899Z,65.90
2019-05-05T14:06:13.818Z,66.00
2019-05-05T14:08:44.957Z,65.80
2019-05-05T14:11:15.487Z,66.00
2019-05-05T14:13:48.584Z,66.40
2019-05-05T14:16:18.017Z,66.60
2019-05-05T14:18:48.592Z,66.60
2019-05-05T14:21:19.080Z,66.60
2019-05-05T14:23:54.552Z,66.70
2019-05-05T14:26:28.266Z,66.10
2019-05-05T14:28:57.484Z,66.10
2019-05-05T14:31:29.418Z,65.90
2019-05-05T14:34:01.399Z,65.80
2019-05-05T14:36:45.448Z,66.20
2019-05-05T14:39:17.420Z,65.90
2019-05-05T14:41:47.964Z,65.90
2019-05-05T14:44:18.371Z,65.90
2019-05-05T14:46:49.096Z,66.00
2019-05-05T14:49:19.553Z,66.40
2019-05-05T14:51:49.936Z,66.40
2019-05-05T14:54:20.351Z,66.30
2019-05-05T14:56:54.346Z,66.50
2019-05-05T14:59:26.681Z,66.50
2019-05-05T15:01:58.774Z,65.70
2019-05-05T15:04:34.458Z,65.70
2019-05-05T15:07:09.330Z,65.70
2019-05-05T15:09:44.120Z,65.60
2019-05-05T15:12:34.748Z,65.40
2019-05-05T15:15:07.610Z,65.20
2019-05-05T15:17:38.023Z,65.10
2019-05-05T15:20:08.466Z,65.00
2019-05-05T15:22:38.955Z,64.50
2019-05-05T15:25:09.388Z,65.00
2019-05-05T15:27:39.832Z,65.40
2019-05-05T15:30:11.956Z,64.80
2019-05-05T15:32:43.787Z,65.00
2019-05-05T15:35:14.438Z,64.40
2019-05-05T15:37:44.846Z,64.70
2019-05-05T15:40:15.742Z,64.30
2019-05-05T15:42:47.584Z,64.20
2019-05-05T15:45:18.543Z,64.30
2019-05-05T15:47:49.247Z,64.20
2019-05-05T15:50:20.418Z,64.30
2019-05-05T15:52:54.349Z,64.00
2019-05-05T15:55:24.661Z,63.90
2019-05-05T15:57:56.726Z,64.40
2019-05-05T16:00:28.609Z,63.80
2019-05-05T16:02:59.200Z,64.10
2019-05-05T16:05:31.219Z,64.60
2019-05-05T16:08:01.780Z,64.60
2019-05-05T16:10:32.217Z,64.70
2019-05-05T16:13:04.481Z,64.70
2019-05-05T16:15:38.136Z,65.20
2019-05-05T16:18:10.079Z,65.20
2019-05-05T16:20:54.740Z,65.40
2019-05-05T16:23:36.206Z,65.40
2019-05-05T16:26:08.068Z,65.50
2019-05-05T16:28:39.907Z,65.90
2019-05-05T16:31:11.168Z,66.30
2019-05-05T16:33:44.102Z,66.60
2019-05-05T16:36:14.621Z,66.70
2019-05-05T16:38:46.658Z,66.50
2019-05-05T16:41:18.551Z,66.70
2019-05-05T16:43:50.264Z,66.70
2019-05-05T16:46:20.699Z,66.60
2019-05-05T16:48:51.067Z,66.80
2019-05-05T16:51:23.145Z,67.00
2019-05-05T16:53:53.922Z,67.00
2019-05-05T16:56:25.661Z,66.70
2019-05-05T16:58:56.090Z,67.20
2019-05-05T17:01:26.681Z,67.40
2019-05-05T17:04:08.473Z,68.10
2019-05-05T17:06:29.152Z,68.20
2019-05-05T17:08:59.608Z,67.90
2019-05-05T17:11:30.109Z,68.00
2019-05-05T17:14:11.328Z,67.90
2019-05-05T17:16:59.713Z,67.70
2019-05-05T17:19:38.827Z,67.90
2019-05-05T17:22:13.183Z,68.10
2019-05-05T17:24:44.028Z,67.70
2019-05-05T17:27:14.544Z,67.90
2019-05-05T17:29:44.905Z,68.30
2019-05-05T17:32:15.382Z,68.90
2019-05-05T17:34:45.822Z,68.30
2019-05-05T17:37:17.704Z,68.40
2019-05-05T17:39:49.731Z,68.10
2019-05-05T17:42:23.829Z,68.10
2019-05-05T17:45:14.174Z,68.20
2019-05-05T17:47:46.327Z,68.20
2019-05-05T17:50:18.296Z,68.10
2019-05-05T17:52:50.370Z,67.90
2019-05-05T17:55:27.923Z,68.10
2019-05-05T17:58:02.128Z,67.70
2019-05-05T18:00:34.105Z,67.30
2019-05-05T18:03:04.497Z,66.30
2019-05-05T18:05:54.315Z,66.60
2019-05-05T18:08:38.501Z,66.20
2019-05-05T18:11:25.719Z,66.40
2019-05-05T18:14:00.515Z,66.30
2019-05-05T18:16:30.877Z,66.60
2019-05-05T18:19:01.302Z,66.10
2019-05-05T18:21:32.281Z,66.60
2019-05-05T18:24:04.233Z,66.40
2019-05-05T18:26:34.840Z,66.60
2019-05-05T18:29:05.455Z,66.30
2019-05-05T18:31:35.838Z,66.30
2019-05-05T18:34:06.558Z,66.40
2019-05-05T18:36:37.046Z,66.40
2019-05-05T18:39:08.336Z,66.20
2019-05-05T18:41:55.392Z,66.30
2019-05-05T18:44:44.365Z,66.20
2019-05-05T18:47:21.194Z,66.80
2019-05-05T18:49:51.563Z,66.50
2019-05-05T18:52:24.514Z,66.20
2019-05-05T18:54:55.172Z,65.90
2019-05-05T18:57:27.837Z,65.80
2019-05-05T18:59:58.222Z,65.60
2019-05-05T19:02:30.217Z,66.00
2019-05-05T19:05:15.741Z,65.30
2019-05-05T19:08:04.621Z,65.10
2019-05-05T19:10:35.092Z,65.30
2019-05-05T19:13:05.510Z,65.20
2019-05-05T19:15:36.868Z,65.20
2019-05-05T19:18:07.387Z,65.30
2019-05-05T19:20:39.357Z,65.10
2019-05-05T19:23:09.851Z,65.30
2019-05-05T19:25:40.257Z,65.20
2019-05-05T19:28:10.659Z,64.60
2019-05-05T19:30:41.109Z,64.90
2019-05-05T19:33:13.416Z,64.80
2019-05-05T19:35:45.265Z,65.20
2019-05-05T19:38:18.589Z,65.40
2019-05-05T19:40:49.095Z,65.60
2019-05-05T19:43:19.536Z,65.60
2019-05-05T19:45:50.213Z,65.70
2019-05-05T19:48:24.438Z,65.90
2019-05-05T19:51:04.561Z,66.00
2019-05-05T19:53:35.508Z,66.30
2019-05-05T19:56:07.611Z,66.50
2019-05-05T19:58:37.977Z,66.60
2019-05-05T20:01:09.934Z,67.30
2019-05-05T20:03:40.475Z,66.80
2019-05-05T20:06:11.341Z,66.90
2019-05-05T20:08:42.498Z,66.80
2019-05-05T20:11:14.374Z,66.90
2019-05-05T20:13:44.924Z,66.80
2019-05-05T20:16:22.972Z,66.80
2019-05-05T20:18:55.037Z,66.50
2019-05-05T20:21:26.924Z,66.50
2019-05-05T20:23:57.383Z,66.60
2019-05-05T20:26:27.811Z,66.30
2019-05-05T20:29:10.493Z,65.80
2019-05-05T20:31:31.809Z,65.60
2019-05-05T20:34:03.991Z,65.60
2019-05-05T20:36:36.119Z,65.60
2019-05-05T20:39:07.062Z,65.50
2019-05-05T20:41:37.469Z,65.20
2019-05-05T20:44:07.852Z,65.40
2019-05-05T20:46:38.470Z,65.40
2019-05-05T20:49:08.836Z,65.40
2019-05-05T20:51:40.344Z,65.50
2019-05-05T20:54:10.720Z,65.70
2019-05-05T20:56:41.215Z,65.90
2019-05-05T20:59:25.235Z,66.30
2019-05-05T21:01:43.959Z,66.70
2019-05-05T21:04:15.913Z,66.90
2019-05-05T21:06:46.418Z,67.20
2019-05-05T21:09:18.307Z,67.30
2019-05-05T21:11:48.716Z,67.60
2019-05-05T21:14:31.145Z,68.00
2019-05-05T21:16:51.421Z,68.10
2019-05-05T21:19:21.799Z,68.20
2019-05-05T21:21:54.429Z,68.10
2019-05-05T21:24:25.075Z,68.20
2019-05-05T21:26:59.929Z,68.10
2019-05-05T21:29:39.481Z,67.90
2019-05-05T21:32:04.919Z,68.00
2019-05-05T21:34:35.444Z,67.80
2019-05-05T21:37:06.825Z,67.60
2019-05-05T21:39:37.197Z,67.50
2019-05-05T21:42:07.632Z,68.00
2019-05-05T21:44:40.043Z,67.20
2019-05-05T21:47:10.552Z,67.10
2019-05-05T21:49:41.149Z,66.90
2019-05-05T21:52:29.524Z,66.80
2019-05-05T21:55:10.351Z,66.60
2019-05-05T21:57:53.109Z,66.20
2019-05-05T22:00:41.544Z,65.90
2019-05-05T22:03:15.047Z,66.00
2019-05-05T22:05:45.526Z,65.80
2019-05-05T22:08:16.003Z,65.80
2019-05-05T22:10:46.445Z,65.50
2019-05-05T22:13:16.861Z,65.40
2019-05-05T22:15:47.326Z,64.90
2019-05-05T22:18:17.725Z,64.80
2019-05-05T22:21:04.309Z,64.90
2019-05-05T22:23:36.723Z,64.70
2019-05-05T22:26:06.427Z,64.60
2019-05-05T22:28:36.911Z,64.60
2019-05-05T22:31:08.813Z,64.40
2019-05-05T22:33:39.180Z,64.30
2019-05-05T22:36:09.584Z,64.10
2019-05-05T22:38:41.458Z,63.90
2019-05-05T22:41:13.278Z,64.30
2019-05-05T22:43:44.362Z,63.80
2019-05-05T22:46:14.914Z,63.80
2019-05-05T22:48:45.292Z,63.80
2019-05-05T22:51:15.716Z,63.80
2019-05-05T22:53:47.564Z,64.00
2019-05-05T22:56:17.930Z,64.30
2019-05-05T22:58:49.915Z,64.30
2019-05-05T23:01:20.312Z,65.20
2019-05-05T23:03:55.368Z,64.80
2019-05-05T23:06:39.311Z,64.90
2019-05-05T23:09:11.381Z,64.80
2019-05-05T23:11:44.014Z,64.80
2019-05-05T23:14:30.385Z,64.80
2019-05-05T23:17:15.498Z,64.90
2019-05-05T23:19:47.672Z,64.90
2019-05-05T23:22:25.611Z,65.00
2019-05-05T23:25:09.991Z,65.00
2019-05-05T23:27:49.992Z,64.90
2019-05-05T23:30:23.768Z,65.00
2019-05-05T23:32:54.987Z,65.00
2019-05-05T23:35:25.505Z,65.00
2019-05-05T23:37:55.925Z,64.90
2019-05-05T23:40:28.001Z,64.90
2019-05-05T23:42:58.369Z,65.00
2019-05-05T23:45:28.765Z,65.10
2019-05-05T23:47:59.169Z,64.90
2019-05-05T23:50:30.771Z,64.90
2019-05-05T23:53:01.153Z,64.90
2019-05-05T23:55:31.651Z,65.00
2019-05-05T23:58:03.756Z,65.10
